sensor_id;sensor_type;location;lat;lon;timestamp;pressure;altitude;pressure_sealevel;temperature;humidity
59650;BME280;46162;57.568;25.814;2023-05-24T00:01:41;101054.00;;;7.64;100.00
59650;BME280;46162;57.568;25.814;2023-05-24T00:04:11;101048.31;;;7.90;100.00
59650;BME280;46162;57.568;25.814;2023-05-24T00:06:41;101064.34;;;7.91;100.00
59650;BME280;46162;57.568;25.814;2023-05-24T00:09:10;101060.13;;;7.98;100.00
59650;BME280;46162;57.568;25.814;2023-05-24T00:11:39;101064.09;;;8.27;100.00
59650;BME280;46162;57.568;25.814;2023-05-24T00:14:08;101059.78;;;8.35;100.00
59650;BME280;46162;57.568;25.814;2023-05-24T00:16:36;101064.69;;;8.42;100.00
59650;BME280;46162;57.568;25.814;2023-05-24T00:19:05;101069.81;;;8.45;100.00
59650;BME280;46162;57.568;25.814;2023-05-24T00:21:35;101059.31;;;8.42;100.00
59650;BME280;46162;57.568;25.814;2023-05-24T00:24:04;101060.22;;;8.52;100.00
59650;BME280;46162;57.568;25.814;2023-05-24T00:26:32;101056.97;;;8.69;100.00
59650;BME280;46162;57.568;25.814;2023-05-24T00:29:01;101056.38;;;8.66;100.00
59650;BME280;46162;57.568;25.814;2023-05-24T00:31:30;101059.53;;;8.38;100.00
59650;BME280;46162;57.568;25.814;2023-05-24T00:33:59;101059.00;;;8.12;100.00
59650;BME280;46162;57.568;25.814;2023-05-24T00:36:28;101064.34;;;7.80;100.00
59650;BME280;46162;57.568;25.814;2023-05-24T00:38:58;101055.81;;;7.52;100.00
59650;BME280;46162;57.568;25.814;2023-05-24T00:41:27;101061.28;;;7.85;100.00
59650;BME280;46162;57.568;25.814;2023-05-24T00:43:55;101065.06;;;7.71;100.00
59650;BME280;46162;57.568;25.814;2023-05-24T00:46:27;101060.47;;;7.62;100.00
59650;BME280;46162;57.568;25.814;2023-05-24T00:48:56;101066.56;;;7.30;100.00
59650;BME280;46162;57.568;25.814;2023-05-24T00:51:25;101060.09;;;7.10;100.00
59650;BME280;46162;57.568;25.814;2023-05-24T00:53:55;101054.31;;;6.92;100.00
59650;BME280;46162;57.568;25.814;2023-05-24T00:56:25;101060.41;;;6.83;100.00
59650;BME280;46162;57.568;25.814;2023-05-24T00:58:54;101062.22;;;6.82;100.00
59650;BME280;46162;57.568;25.814;2023-05-24T01:01:23;101063.78;;;6.74;100.00
59650;BME280;46162;57.568;25.814;2023-05-24T01:03:52;101066.22;;;6.77;100.00
59650;BME280;46162;57.568;25.814;2023-05-24T01:06:21;101064.41;;;6.77;100.00
59650;BME280;46162;57.568;25.814;2023-05-24T01:09:01;101064.66;;;6.74;100.00
59650;BME280;46162;57.568;25.814;2023-05-24T01:11:42;101066.81;;;6.69;100.00
59650;BME280;46162;57.568;25.814;2023-05-24T01:14:19;101070.59;;;6.66;100.00
59650;BME280;46162;57.568;25.814;2023-05-24T01:16:52;101062.69;;;6.76;100.00
59650;BME280;46162;57.568;25.814;2023-05-24T01:19:50;101063.00;;;6.96;100.00
59650;BME280;46162;57.568;25.814;2023-05-24T01:22:31;101068.28;;;7.20;100.00
59650;BME280;46162;57.568;25.814;2023-05-24T01:25:09;101060.44;;;7.39;100.00
59650;BME280;46162;57.568;25.814;2023-05-24T01:27:42;101061.53;;;7.37;100.00
59650;BME280;46162;57.568;25.814;2023-05-24T01:30:11;101062.78;;;7.21;100.00
59650;BME280;46162;57.568;25.814;2023-05-24T01:32:41;101060.09;;;7.21;100.00
59650;BME280;46162;57.568;25.814;2023-05-24T01:35:11;101069.81;;;6.88;100.00
59650;BME280;46162;57.568;25.814;2023-05-24T01:37:39;101058.66;;;6.71;100.00
59650;BME280;46162;57.568;25.814;2023-05-24T01:40:09;101066.28;;;6.53;100.00
59650;BME280;46162;57.568;25.814;2023-05-24T01:42:58;101060.97;;;6.29;100.00
59650;BME280;46162;57.568;25.814;2023-05-24T01:45:34;101063.28;;;6.09;100.00
59650;BME280;46162;57.568;25.814;2023-05-24T01:48:11;101063.53;;;5.93;100.00
59650;BME280;46162;57.568;25.814;2023-05-24T01:50:48;101066.56;;;5.89;100.00
59650;BME280;46162;57.568;25.814;2023-05-24T01:53:20;101074.09;;;5.84;100.00
59650;BME280;46162;57.568;25.814;2023-05-24T01:55:55;101075.78;;;5.85;100.00
59650;BME280;46162;57.568;25.814;2023-05-24T01:58:26;101076.41;;;5.88;100.00
59650;BME280;46162;57.568;25.814;2023-05-24T02:00:56;101074.50;;;5.77;100.00
59650;BME280;46162;57.568;25.814;2023-05-24T02:03:25;101078.50;;;5.72;100.00
59650;BME280;46162;57.568;25.814;2023-05-24T02:05:54;101090.16;;;5.71;100.00
59650;BME280;46162;57.568;25.814;2023-05-24T02:08:23;101086.22;;;5.76;100.00
59650;BME280;46162;57.568;25.814;2023-05-24T02:10:51;101087.81;;;5.79;100.00
59650;BME280;46162;57.568;25.814;2023-05-24T02:13:20;101086.53;;;5.72;100.00
59650;BME280;46162;57.568;25.814;2023-05-24T02:15:50;101080.09;;;5.74;100.00
59650;BME280;46162;57.568;25.814;2023-05-24T02:18:19;101085.47;;;5.74;100.00
59650;BME280;46162;57.568;25.814;2023-05-24T02:20:48;101085.88;;;5.68;100.00
59650;BME280;46162;57.568;25.814;2023-05-24T02:23:17;101090.63;;;5.65;100.00
59650;BME280;46162;57.568;25.814;2023-05-24T02:25:46;101086.13;;;5.65;100.00
59650;BME280;46162;57.568;25.814;2023-05-24T02:28:14;101093.56;;;5.86;100.00
59650;BME280;46162;57.568;25.814;2023-05-24T02:30:43;101098.50;;;5.92;100.00
59650;BME280;46162;57.568;25.814;2023-05-24T02:33:13;101088.41;;;5.95;100.00
59650;BME280;46162;57.568;25.814;2023-05-24T02:35:42;101088.28;;;6.10;100.00
59650;BME280;46162;57.568;25.814;2023-05-24T02:38:11;101095.41;;;6.22;100.00
59650;BME280;46162;57.568;25.814;2023-05-24T02:40:39;101094.44;;;6.47;100.00
59650;BME280;46162;57.568;25.814;2023-05-24T02:43:08;101093.75;;;6.67;100.00
59650;BME280;46162;57.568;25.814;2023-05-24T02:45:37;101090.38;;;6.77;100.00
59650;BME280;46162;57.568;25.814;2023-05-24T02:48:05;101088.00;;;6.96;100.00
59650;BME280;46162;57.568;25.814;2023-05-24T02:50:35;101088.50;;;7.01;100.00
59650;BME280;46162;57.568;25.814;2023-05-24T02:53:04;101087.66;;;7.01;100.00
59650;BME280;46162;57.568;25.814;2023-05-24T02:55:33;101083.97;;;7.02;100.00
59650;BME280;46162;57.568;25.814;2023-05-24T02:58:01;101087.53;;;7.14;100.00
59650;BME280;46162;57.568;25.814;2023-05-24T03:00:31;101089.50;;;7.23;100.00
59650;BME280;46162;57.568;25.814;2023-05-24T03:03:00;101081.09;;;7.39;100.00
59650;BME280;46162;57.568;25.814;2023-05-24T03:05:31;101087.06;;;7.76;100.00
59650;BME280;46162;57.568;25.814;2023-05-24T03:08:01;101093.44;;;7.86;100.00
59650;BME280;46162;57.568;25.814;2023-05-24T03:10:30;101085.47;;;7.85;100.00
59650;BME280;46162;57.568;25.814;2023-05-24T03:12:59;101089.22;;;7.93;100.00
59650;BME280;46162;57.568;25.814;2023-05-24T03:15:28;101098.50;;;8.01;100.00
59650;BME280;46162;57.568;25.814;2023-05-24T03:17:56;101086.72;;;8.24;100.00
59650;BME280;46162;57.568;25.814;2023-05-24T03:20:25;101100.19;;;8.24;100.00
59650;BME280;46162;57.568;25.814;2023-05-24T03:22:54;101095.81;;;8.55;100.00
59650;BME280;46162;57.568;25.814;2023-05-24T03:25:24;101091.06;;;8.48;100.00
59650;BME280;46162;57.568;25.814;2023-05-24T03:27:54;101088.16;;;8.72;100.00
59650;BME280;46162;57.568;25.814;2023-05-24T03:30:23;101090.38;;;8.88;100.00
59650;BME280;46162;57.568;25.814;2023-05-24T03:32:53;101091.25;;;9.09;100.00
59650;BME280;46162;57.568;25.814;2023-05-24T03:35:22;101093.03;;;9.20;100.00
59650;BME280;46162;57.568;25.814;2023-05-24T03:37:51;101088.53;;;9.09;100.00
59650;BME280;46162;57.568;25.814;2023-05-24T03:40:20;101091.19;;;9.51;100.00
59650;BME280;46162;57.568;25.814;2023-05-24T03:42:54;101091.53;;;9.37;100.00
59650;BME280;46162;57.568;25.814;2023-05-24T03:45:38;101090.28;;;9.41;100.00
59650;BME280;46162;57.568;25.814;2023-05-24T03:48:06;101092.66;;;9.65;100.00
59650;BME280;46162;57.568;25.814;2023-05-24T03:50:35;101091.53;;;9.67;100.00
59650;BME280;46162;57.568;25.814;2023-05-24T03:53:04;101092.44;;;9.78;100.00
59650;BME280;46162;57.568;25.814;2023-05-24T03:55:33;101085.50;;;9.85;100.00
59650;BME280;46162;57.568;25.814;2023-05-24T03:58:03;101088.81;;;10.08;100.00
59650;BME280;46162;57.568;25.814;2023-05-24T04:00:32;101081.16;;;10.23;100.00
59650;BME280;46162;57.568;25.814;2023-05-24T04:03:01;101090.31;;;10.31;100.00
59650;BME280;46162;57.568;25.814;2023-05-24T04:05:33;101093.16;;;10.40;100.00
59650;BME280;46162;57.568;25.814;2023-05-24T04:08:03;101093.16;;;10.59;100.00
59650;BME280;46162;57.568;25.814;2023-05-24T04:10:32;101102.81;;;10.81;100.00
59650;BME280;46162;57.568;25.814;2023-05-24T04:13:02;101101.25;;;10.88;100.00
59650;BME280;46162;57.568;25.814;2023-05-24T04:15:35;101103.66;;;11.01;100.00
59650;BME280;46162;57.568;25.814;2023-05-24T04:18:04;101092.41;;;11.15;100.00
59650;BME280;46162;57.568;25.814;2023-05-24T04:20:34;101105.28;;;11.31;100.00
59650;BME280;46162;57.568;25.814;2023-05-24T04:23:02;101107.56;;;11.36;100.00
59650;BME280;46162;57.568;25.814;2023-05-24T04:25:31;101104.72;;;11.37;100.00
59650;BME280;46162;57.568;25.814;2023-05-24T04:28:05;101107.94;;;11.51;100.00
59650;BME280;46162;57.568;25.814;2023-05-24T04:30:34;101111.59;;;11.59;100.00
59650;BME280;46162;57.568;25.814;2023-05-24T04:33:03;101111.28;;;11.72;100.00
59650;BME280;46162;57.568;25.814;2023-05-24T04:35:32;101112.34;;;11.89;100.00
59650;BME280;46162;57.568;25.814;2023-05-24T04:38:01;101112.69;;;12.04;100.00
59650;BME280;46162;57.568;25.814;2023-05-24T04:40:30;101117.47;;;12.20;100.00
59650;BME280;46162;57.568;25.814;2023-05-24T04:42:59;101115.69;;;12.29;100.00
59650;BME280;46162;57.568;25.814;2023-05-24T04:45:29;101118.78;;;12.34;100.00
59650;BME280;46162;57.568;25.814;2023-05-24T04:47:59;101107.44;;;12.48;100.00
59650;BME280;46162;57.568;25.814;2023-05-24T04:50:27;101113.94;;;12.55;100.00
59650;BME280;46162;57.568;25.814;2023-05-24T04:52:56;101117.13;;;12.68;100.00
59650;BME280;46162;57.568;25.814;2023-05-24T04:55:25;101119.59;;;12.80;100.00
59650;BME280;46162;57.568;25.814;2023-05-24T04:57:54;101119.34;;;12.91;100.00
59650;BME280;46162;57.568;25.814;2023-05-24T05:00:23;101127.16;;;12.94;100.00
59650;BME280;46162;57.568;25.814;2023-05-24T05:02:53;101122.81;;;13.01;100.00
59650;BME280;46162;57.568;25.814;2023-05-24T05:05:22;101125.59;;;13.09;100.00
59650;BME280;46162;57.568;25.814;2023-05-24T05:07:51;101124.41;;;13.12;100.00
59650;BME280;46162;57.568;25.814;2023-05-24T05:10:19;101127.19;;;13.20;100.00
59650;BME280;46162;57.568;25.814;2023-05-24T05:12:49;101116.34;;;13.38;100.00
59650;BME280;46162;57.568;25.814;2023-05-24T05:15:19;101124.16;;;13.41;100.00
59650;BME280;46162;57.568;25.814;2023-05-24T05:17:48;101122.75;;;13.63;100.00
59650;BME280;46162;57.568;25.814;2023-05-24T05:20:18;101129.63;;;13.75;100.00
59650;BME280;46162;57.568;25.814;2023-05-24T05:22:48;101134.84;;;13.77;100.00
59650;BME280;46162;57.568;25.814;2023-05-24T05:25:17;101127.38;;;14.05;100.00
59650;BME280;46162;57.568;25.814;2023-05-24T05:27:45;101139.44;;;14.19;100.00
59650;BME280;46162;57.568;25.814;2023-05-24T05:30:14;101127.59;;;14.28;100.00
59650;BME280;46162;57.568;25.814;2023-05-24T05:32:43;101130.66;;;14.25;100.00
59650;BME280;46162;57.568;25.814;2023-05-24T05:35:12;101128.06;;;14.74;100.00
59650;BME280;46162;57.568;25.814;2023-05-24T05:37:42;101135.88;;;14.77;100.00
59650;BME280;46162;57.568;25.814;2023-05-24T05:40:11;101127.75;;;14.94;100.00
59650;BME280;46162;57.568;25.814;2023-05-24T05:42:43;101131.47;;;14.76;100.00
59650;BME280;46162;57.568;25.814;2023-05-24T05:45:13;101132.16;;;14.87;100.00
59650;BME280;46162;57.568;25.814;2023-05-24T05:47:42;101126.88;;;15.10;100.00
59650;BME280;46162;57.568;25.814;2023-05-24T05:50:11;101129.97;;;15.07;100.00
59650;BME280;46162;57.568;25.814;2023-05-24T05:52:39;101132.66;;;15.15;100.00
59650;BME280;46162;57.568;25.814;2023-05-24T05:55:10;101137.41;;;15.29;100.00
59650;BME280;46162;57.568;25.814;2023-05-24T05:57:39;101135.66;;;15.53;100.00
59650;BME280;46162;57.568;25.814;2023-05-24T06:00:09;101141.03;;;15.94;100.00
59650;BME280;46162;57.568;25.814;2023-05-24T06:02:37;101141.88;;;16.02;100.00
59650;BME280;46162;57.568;25.814;2023-05-24T06:05:07;101143.28;;;16.21;100.00
59650;BME280;46162;57.568;25.814;2023-05-24T06:07:36;101140.88;;;16.26;100.00
59650;BME280;46162;57.568;25.814;2023-05-24T06:10:06;101149.88;;;16.35;100.00
59650;BME280;46162;57.568;25.814;2023-05-24T06:12:36;101148.00;;;16.36;100.00
59650;BME280;46162;57.568;25.814;2023-05-24T06:15:07;101145.03;;;16.76;100.00
59650;BME280;46162;57.568;25.814;2023-05-24T06:17:36;101151.56;;;16.67;100.00
59650;BME280;46162;57.568;25.814;2023-05-24T06:20:06;101156.44;;;16.80;100.00
59650;BME280;46162;57.568;25.814;2023-05-24T06:22:37;101151.41;;;16.92;100.00
59650;BME280;46162;57.568;25.814;2023-05-24T06:25:06;101154.78;;;17.17;100.00
59650;BME280;46162;57.568;25.814;2023-05-24T06:27:37;101158.31;;;17.03;100.00
59650;BME280;46162;57.568;25.814;2023-05-24T06:30:07;101160.03;;;17.04;100.00
59650;BME280;46162;57.568;25.814;2023-05-24T06:32:36;101162.44;;;16.98;100.00
59650;BME280;46162;57.568;25.814;2023-05-24T06:35:05;101166.41;;;17.11;100.00
59650;BME280;46162;57.568;25.814;2023-05-24T06:37:35;101158.91;;;17.13;100.00
59650;BME280;46162;57.568;25.814;2023-05-24T06:40:06;101160.56;;;17.37;100.00
59650;BME280;46162;57.568;25.814;2023-05-24T06:42:37;101162.78;;;17.56;100.00
59650;BME280;46162;57.568;25.814;2023-05-24T06:45:07;101161.47;;;17.67;100.00
59650;BME280;46162;57.568;25.814;2023-05-24T06:47:36;101156.81;;;17.91;100.00
59650;BME280;46162;57.568;25.814;2023-05-24T06:50:07;101162.84;;;17.86;100.00
59650;BME280;46162;57.568;25.814;2023-05-24T06:52:36;101163.50;;;18.03;100.00
59650;BME280;46162;57.568;25.814;2023-05-24T06:55:05;101171.69;;;18.03;100.00
59650;BME280;46162;57.568;25.814;2023-05-24T06:57:33;101163.94;;;18.21;100.00
59650;BME280;46162;57.568;25.814;2023-05-24T07:00:05;101164.28;;;18.48;100.00
59650;BME280;46162;57.568;25.814;2023-05-24T07:02:38;101169.22;;;18.59;100.00
59650;BME280;46162;57.568;25.814;2023-05-24T07:05:08;101165.19;;;18.55;100.00
59650;BME280;46162;57.568;25.814;2023-05-24T07:07:38;101171.69;;;18.90;100.00
59650;BME280;46162;57.568;25.814;2023-05-24T07:10:08;101163.81;;;18.81;100.00
59650;BME280;46162;57.568;25.814;2023-05-24T07:12:37;101162.66;;;19.11;100.00
59650;BME280;46162;57.568;25.814;2023-05-24T07:15:08;101166.56;;;19.24;100.00
59650;BME280;46162;57.568;25.814;2023-05-24T07:17:37;101162.09;;;19.44;100.00
59650;BME280;46162;57.568;25.814;2023-05-24T07:20:07;101160.50;;;19.57;100.00
59650;BME280;46162;57.568;25.814;2023-05-24T07:22:37;101165.16;;;19.63;100.00
59650;BME280;46162;57.568;25.814;2023-05-24T07:25:06;101166.31;;;19.75;100.00
59650;BME280;46162;57.568;25.814;2023-05-24T07:27:35;101166.84;;;19.92;100.00
59650;BME280;46162;57.568;25.814;2023-05-24T07:30:05;101161.44;;;20.05;100.00
59650;BME280;46162;57.568;25.814;2023-05-24T07:32:56;101164.22;;;20.12;100.00
59650;BME280;46162;57.568;25.814;2023-05-24T07:35:24;101164.91;;;20.27;100.00
59650;BME280;46162;57.568;25.814;2023-05-24T07:37:54;101167.88;;;20.26;100.00
59650;BME280;46162;57.568;25.814;2023-05-24T07:40:24;101171.84;;;20.58;100.00
59650;BME280;46162;57.568;25.814;2023-05-24T07:42:53;101165.94;;;20.61;98.69
59650;BME280;46162;57.568;25.814;2023-05-24T07:45:22;101169.97;;;20.65;100.00
59650;BME280;46162;57.568;25.814;2023-05-24T07:47:51;101164.16;;;20.47;100.00
59650;BME280;46162;57.568;25.814;2023-05-24T07:50:24;101170.19;;;20.70;100.00
59650;BME280;46162;57.568;25.814;2023-05-24T07:52:55;101168.44;;;20.56;94.25
59650;BME280;46162;57.568;25.814;2023-05-24T07:55:24;101171.78;;;20.51;100.00
59650;BME280;46162;57.568;25.814;2023-05-24T07:57:54;101162.78;;;20.57;98.87
59650;BME280;46162;57.568;25.814;2023-05-24T08:00:22;101164.13;;;20.33;87.88
59650;BME280;46162;57.568;25.814;2023-05-24T08:02:51;101161.28;;;20.55;100.00
59650;BME280;46162;57.568;25.814;2023-05-24T08:05:20;101164.03;;;20.55;100.00
59650;BME280;46162;57.568;25.814;2023-05-24T08:07:50;101162.53;;;20.59;100.00
59650;BME280;46162;57.568;25.814;2023-05-24T08:10:19;101163.75;;;20.50;86.26
59650;BME280;46162;57.568;25.814;2023-05-24T08:12:48;101167.97;;;20.52;100.00
59650;BME280;46162;57.568;25.814;2023-05-24T08:15:17;101158.63;;;20.33;100.00
59650;BME280;46162;57.568;25.814;2023-05-24T08:17:47;101159.53;;;20.54;100.00
59650;BME280;46162;57.568;25.814;2023-05-24T08:20:16;101158.78;;;20.60;100.00
59650;BME280;46162;57.568;25.814;2023-05-24T08:22:44;101163.84;;;20.76;100.00
59650;BME280;46162;57.568;25.814;2023-05-24T08:25:16;101159.03;;;20.98;100.00
59650;BME280;46162;57.568;25.814;2023-05-24T08:27:45;101165.56;;;20.77;100.00
59650;BME280;46162;57.568;25.814;2023-05-24T08:30:14;101157.94;;;20.66;99.39
59650;BME280;46162;57.568;25.814;2023-05-24T08:32:42;101167.25;;;20.78;95.25
59650;BME280;46162;57.568;25.814;2023-05-24T08:35:11;101162.38;;;20.74;92.61
59650;BME280;46162;57.568;25.814;2023-05-24T08:37:43;101160.75;;;21.06;89.39
59650;BME280;46162;57.568;25.814;2023-05-24T08:40:12;101160.97;;;21.04;96.75
59650;BME280;46162;57.568;25.814;2023-05-24T08:42:43;101154.22;;;21.07;97.64
59650;BME280;46162;57.568;25.814;2023-05-24T08:45:13;101158.88;;;21.26;86.83
59650;BME280;46162;57.568;25.814;2023-05-24T08:47:42;101161.41;;;21.48;84.97
59650;BME280;46162;57.568;25.814;2023-05-24T08:50:12;101160.56;;;21.47;91.96
59650;BME280;46162;57.568;25.814;2023-05-24T08:52:44;101158.88;;;21.26;79.43
59650;BME280;46162;57.568;25.814;2023-05-24T08:55:14;101159.28;;;21.23;79.01
59650;BME280;46162;57.568;25.814;2023-05-24T08:57:44;101157.19;;;21.52;87.91
59650;BME280;46162;57.568;25.814;2023-05-24T09:00:14;101151.66;;;21.65;90.62
59650;BME280;46162;57.568;25.814;2023-05-24T09:02:44;101157.00;;;21.47;86.34
59650;BME280;46162;57.568;25.814;2023-05-24T09:05:13;101144.72;;;21.50;81.98
59650;BME280;46162;57.568;25.814;2023-05-24T09:07:44;101140.28;;;21.48;77.21
59650;BME280;46162;57.568;25.814;2023-05-24T09:10:14;101138.59;;;21.47;73.43
59650;BME280;46162;57.568;25.814;2023-05-24T09:12:47;101141.28;;;21.81;88.24
59650;BME280;46162;57.568;25.814;2023-05-24T09:15:17;101135.06;;;22.05;89.43
59650;BME280;46162;57.568;25.814;2023-05-24T09:17:46;101133.13;;;22.26;93.93
59650;BME280;46162;57.568;25.814;2023-05-24T09:20:15;101138.38;;;22.34;90.27
59650;BME280;46162;57.568;25.814;2023-05-24T09:22:44;101130.31;;;22.39;86.18
59650;BME280;46162;57.568;25.814;2023-05-24T09:25:16;101130.75;;;22.43;86.54
59650;BME280;46162;57.568;25.814;2023-05-24T09:27:51;101129.88;;;22.42;74.89
59650;BME280;46162;57.568;25.814;2023-05-24T09:30:20;101130.19;;;22.66;91.49
59650;BME280;46162;57.568;25.814;2023-05-24T09:32:57;101116.97;;;22.43;77.85
59650;BME280;46162;57.568;25.814;2023-05-24T09:35:26;101116.22;;;22.61;79.40
59650;BME280;46162;57.568;25.814;2023-05-24T09:37:56;101118.81;;;22.87;59.69
59650;BME280;46162;57.568;25.814;2023-05-24T09:40:26;101115.63;;;22.52;64.68
59650;BME280;46162;57.568;25.814;2023-05-24T09:43:04;101119.97;;;22.73;72.88
59650;BME280;46162;57.568;25.814;2023-05-24T09:45:42;101121.66;;;22.74;69.60
59650;BME280;46162;57.568;25.814;2023-05-24T09:48:14;101118.63;;;22.82;65.85
59650;BME280;46162;57.568;25.814;2023-05-24T09:50:43;101116.38;;;22.72;70.74
59650;BME280;46162;57.568;25.814;2023-05-24T09:53:16;101115.09;;;22.75;70.78
59650;BME280;46162;57.568;25.814;2023-05-24T09:55:45;101116.72;;;22.83;69.92
59650;BME280;46162;57.568;25.814;2023-05-24T09:58:16;101115.16;;;22.93;66.29
59650;BME280;46162;57.568;25.814;2023-05-24T10:00:45;101105.47;;;23.16;68.72
59650;BME280;46162;57.568;25.814;2023-05-24T10:03:15;101110.84;;;23.04;65.78
59650;BME280;46162;57.568;25.814;2023-05-24T10:05:44;101113.59;;;23.29;69.04
59650;BME280;46162;57.568;25.814;2023-05-24T10:08:14;101110.28;;;23.46;64.50
59650;BME280;46162;57.568;25.814;2023-05-24T10:10:44;101106.63;;;23.52;63.12
59650;BME280;46162;57.568;25.814;2023-05-24T10:13:16;101103.03;;;23.76;66.08
59650;BME280;46162;57.568;25.814;2023-05-24T10:15:45;101116.88;;;24.07;66.97
59650;BME280;46162;57.568;25.814;2023-05-24T10:18:13;101109.56;;;24.12;61.78
59650;BME280;46162;57.568;25.814;2023-05-24T10:20:42;101101.88;;;23.84;55.75
59650;BME280;46162;57.568;25.814;2023-05-24T10:23:14;101112.22;;;23.89;59.71
59650;BME280;46162;57.568;25.814;2023-05-24T10:25:50;101105.06;;;23.99;53.36
59650;BME280;46162;57.568;25.814;2023-05-24T10:28:23;101101.63;;;24.04;61.82
59650;BME280;46162;57.568;25.814;2023-05-24T10:31:02;101102.44;;;23.86;78.64
59650;BME280;46162;57.568;25.814;2023-05-24T10:33:35;101103.34;;;23.61;71.85
59650;BME280;46162;57.568;25.814;2023-05-24T10:36:06;101105.81;;;23.88;61.69
59650;BME280;46162;57.568;25.814;2023-05-24T10:38:38;101112.16;;;23.52;55.58
59650;BME280;46162;57.568;25.814;2023-05-24T10:41:08;101104.94;;;23.07;58.66
59650;BME280;46162;57.568;25.814;2023-05-24T10:43:38;101095.19;;;23.30;65.74
59650;BME280;46162;57.568;25.814;2023-05-24T10:46:08;101096.03;;;23.30;61.58
59650;BME280;46162;57.568;25.814;2023-05-24T10:48:38;101085.53;;;23.39;61.35
59650;BME280;46162;57.568;25.814;2023-05-24T10:51:29;101087.47;;;23.38;63.02
59650;BME280;46162;57.568;25.814;2023-05-24T10:54:10;101086.25;;;23.53;90.38
59650;BME280;46162;57.568;25.814;2023-05-24T10:56:40;101078.81;;;23.35;63.14
59650;BME280;46162;57.568;25.814;2023-05-24T10:59:21;101082.16;;;23.80;74.07
59650;BME280;46162;57.568;25.814;2023-05-24T11:01:54;101083.34;;;23.48;61.36
59650;BME280;46162;57.568;25.814;2023-05-24T11:04:24;101093.00;;;23.57;72.72
59650;BME280;46162;57.568;25.814;2023-05-24T11:06:54;101087.63;;;23.44;66.40
59650;BME280;46162;57.568;25.814;2023-05-24T11:09:24;101084.53;;;23.15;60.99
59650;BME280;46162;57.568;25.814;2023-05-24T11:11:56;101087.25;;;22.90;57.96
59650;BME280;46162;57.568;25.814;2023-05-24T11:14:28;101083.16;;;22.67;65.55
59650;BME280;46162;57.568;25.814;2023-05-24T11:16:58;101081.06;;;22.31;65.89
59650;BME280;46162;57.568;25.814;2023-05-24T11:19:30;101083.53;;;22.39;62.68
59650;BME280;46162;57.568;25.814;2023-05-24T11:22:01;101082.09;;;22.30;74.17
59650;BME280;46162;57.568;25.814;2023-05-24T11:24:31;101078.34;;;22.24;67.63
59650;BME280;46162;57.568;25.814;2023-05-24T11:27:00;101076.66;;;22.17;58.82
59650;BME280;46162;57.568;25.814;2023-05-24T11:29:31;101064.41;;;22.12;63.65
59650;BME280;46162;57.568;25.814;2023-05-24T11:32:04;101061.84;;;22.18;70.73
59650;BME280;46162;57.568;25.814;2023-05-24T11:34:34;101073.69;;;22.25;63.32
59650;BME280;46162;57.568;25.814;2023-05-24T11:37:03;101070.31;;;22.16;74.13
59650;BME280;46162;57.568;25.814;2023-05-24T11:39:33;101065.72;;;22.03;69.03
59650;BME280;46162;57.568;25.814;2023-05-24T11:42:03;101066.94;;;22.14;74.74
59650;BME280;46162;57.568;25.814;2023-05-24T11:44:34;101073.31;;;22.08;88.49
59650;BME280;46162;57.568;25.814;2023-05-24T11:47:05;101072.91;;;22.04;77.07
59650;BME280;46162;57.568;25.814;2023-05-24T11:49:35;101064.41;;;22.12;78.38
59650;BME280;46162;57.568;25.814;2023-05-24T11:52:03;101065.44;;;22.25;76.50
59650;BME280;46162;57.568;25.814;2023-05-24T11:54:33;101066.50;;;22.24;77.97
59650;BME280;46162;57.568;25.814;2023-05-24T11:57:04;101065.25;;;22.20;80.00
59650;BME280;46162;57.568;25.814;2023-05-24T11:59:34;101065.00;;;22.28;81.13
59650;BME280;46162;57.568;25.814;2023-05-24T12:02:05;101058.41;;;22.36;74.79
59650;BME280;46162;57.568;25.814;2023-05-24T12:04:35;101056.56;;;22.54;77.85
59650;BME280;46162;57.568;25.814;2023-05-24T12:07:04;101053.47;;;22.44;81.42
59650;BME280;46162;57.568;25.814;2023-05-24T12:09:38;101051.78;;;22.43;67.20
59650;BME280;46162;57.568;25.814;2023-05-24T12:12:07;101044.81;;;22.41;67.94
59650;BME280;46162;57.568;25.814;2023-05-24T12:14:37;101050.72;;;22.44;70.96
59650;BME280;46162;57.568;25.814;2023-05-24T12:17:13;101039.25;;;22.47;74.34
59650;BME280;46162;57.568;25.814;2023-05-24T12:19:43;101044.69;;;22.61;66.10
59650;BME280;46162;57.568;25.814;2023-05-24T12:22:12;101039.19;;;22.61;65.40
59650;BME280;46162;57.568;25.814;2023-05-24T12:24:40;101035.72;;;22.40;70.63
59650;BME280;46162;57.568;25.814;2023-05-24T12:27:10;101030.03;;;22.35;73.25
59650;BME280;46162;57.568;25.814;2023-05-24T12:29:40;101038.09;;;22.30;74.86
59650;BME280;46162;57.568;25.814;2023-05-24T12:32:09;101031.59;;;22.24;78.15
59650;BME280;46162;57.568;25.814;2023-05-24T12:34:41;101040.03;;;22.23;74.08
59650;BME280;46162;57.568;25.814;2023-05-24T12:37:11;101030.13;;;22.22;73.21
59650;BME280;46162;57.568;25.814;2023-05-24T12:39:40;101030.13;;;22.15;71.43
59650;BME280;46162;57.568;25.814;2023-05-24T12:42:10;101032.28;;;22.06;57.95
59650;BME280;46162;57.568;25.814;2023-05-24T12:44:41;101026.97;;;22.11;67.79
59650;BME280;46162;57.568;25.814;2023-05-24T12:47:11;101025.31;;;22.04;61.95
59650;BME280;46162;57.568;25.814;2023-05-24T12:49:43;101020.66;;;22.04;66.12
59650;BME280;46162;57.568;25.814;2023-05-24T12:52:11;101030.34;;;22.14;61.35